Time;durP1;ratioP1;P1;durP2;ratioP2;P2;SDS_P1;SDS_P2;PMS_P1;PMS_P2;Temp;Humidity;BMP_temperature;BMP_pressure;BME280_temperature;BME280_humidity;BME280_pressure;Samples;Min_cycle;Max_cycle;Signal;HPM_P1;HPM_P2
2022/05/04 00:00:31;;;;;;;10.50;3.60;;;;;;;10.95;64.17;101856.13;5077014;28;20442;-51
2022/05/04 00:02:59;;;;;;;9.68;3.67;;;;;;;10.96;63.73;101857.75;5068154;28;20075;-53
2022/05/04 00:05:26;;;;;;;10.27;4.05;;;;;;;10.90;64.31;101863.38;5079645;28;20048;-50
2022/05/04 00:07:54;;;;;;;13.15;3.80;;;;;;;10.80;64.82;101861.28;5060139;28;20088;-51
2022/05/04 00:10:22;;;;;;;13.25;4.32;;;;;;;10.82;65.04;101864.59;5054331;28;20128;-56
2022/05/04 00:12:50;;;;;;;12.52;4.03;;;;;;;10.77;64.48;101859.03;5036801;28;20095;-51
2022/05/04 00:15:18;;;;;;;10.38;3.83;;;;;;;10.77;65.21;101870.75;5034044;28;20113;-51
2022/05/04 00:17:45;;;;;;;9.90;4.32;;;;;;;10.77;64.67;101864.50;5031793;28;20055;-51
2022/05/04 00:20:13;;;;;;;9.55;3.50;;;;;;;10.74;65.04;101867.72;5037929;28;20045;-49
2022/05/04 00:22:41;;;;;;;13.27;3.75;;;;;;;10.70;65.35;101859.19;5032842;28;20121;-50
2022/05/04 00:25:09;;;;;;;9.68;3.55;;;;;;;10.64;65.97;101866.44;5032756;28;20041;-53
2022/05/04 00:27:37;;;;;;;11.60;3.70;;;;;;;10.69;66.01;101870.34;5041911;28;20049;-53
2022/05/04 00:30:06;;;;;;;14.55;3.70;;;;;;;10.71;65.64;101868.22;5052377;28;20041;-52
2022/05/04 00:32:34;;;;;;;12.90;3.78;;;;;;;10.78;65.39;101866.97;5043649;28;20057;-51
2022/05/04 00:35:01;;;;;;;10.55;3.67;;;;;;;10.85;65.24;101859.50;5032759;28;20484;-50
2022/05/04 00:37:29;;;;;;;12.65;3.90;;;;;;;10.90;64.89;101853.31;5033634;28;20041;-51
2022/05/04 00:39:56;;;;;;;12.90;3.58;;;;;;;10.87;64.89;101862.81;5032658;28;20041;-50
2022/05/04 00:42:24;;;;;;;9.32;3.78;;;;;;;10.84;65.75;101859.72;5031567;28;20503;-48
2022/05/04 00:44:52;;;;;;;11.68;3.78;;;;;;;10.83;65.37;101866.25;5033706;28;20037;-48
2022/05/04 00:47:20;;;;;;;11.75;4.10;;;;;;;10.84;65.94;101860.53;5036490;28;20045;-47
2022/05/04 00:49:48;;;;;;;12.23;3.55;;;;;;;10.84;65.07;101859.72;5038017;28;20035;-48
2022/05/04 00:52:18;;;;;;;11.43;3.88;;;;;;;10.72;65.60;101862.50;5034798;28;20095;-48
2022/05/04 00:54:50;;;;;;;15.30;3.70;;;;;;;10.63;66.06;101863.94;5036423;28;20053;-49
2022/05/04 01:00:08;;;;;;;8.45;3.40;;;;;;;10.62;65.73;101849.50;5015913;28;20050;-50
2022/05/04 01:02:38;;;;;;;11.77;3.80;;;;;;;10.63;66.03;101856.63;5022978;28;20042;-58
2022/05/04 01:05:09;;;;;;;11.38;3.50;;;;;;;10.65;65.70;101848.19;5055638;28;20045;-50
2022/05/04 01:07:38;;;;;;;14.00;3.60;;;;;;;10.69;65.91;101852.09;5054558;28;20053;-54
2022/05/04 01:10:11;;;;;;;10.25;3.78;;;;;;;10.66;65.71;101847.94;5062804;28;20518;-57
2022/05/04 01:12:51;;;;;;;15.90;3.70;;;;;;;10.66;65.45;101856.13;5060492;28;20040;-51
2022/05/04 01:15:19;;;;;;;12.48;3.53;;;;;;;10.63;65.82;101856.63;5075704;28;20044;-51
2022/05/04 01:17:47;;;;;;;9.73;3.40;;;;;;;10.60;65.99;101854.34;5056145;28;20049;-51
2022/05/04 01:20:16;;;;;;;12.18;3.80;;;;;;;10.61;65.57;101858.75;5058364;28;20044;-54
2022/05/04 01:22:44;;;;;;;12.82;4.47;;;;;;;10.56;65.78;101852.34;5068404;28;20144;-52
2022/05/04 01:25:12;;;;;;;16.02;3.95;;;;;;;10.51;65.99;101853.13;5052599;28;20044;-49
2022/05/04 01:27:40;;;;;;;15.65;4.20;;;;;;;10.49;66.06;101851.69;5075458;28;20044;-50
2022/05/04 01:30:08;;;;;;;13.60;3.92;;;;;;;10.46;65.97;101852.97;5073614;28;20036;-48
2022/05/04 01:32:36;;;;;;;12.90;3.40;;;;;;;10.48;65.94;101856.31;5057889;28;20044;-47
2022/05/04 01:35:04;;;;;;;10.90;3.47;;;;;;;10.51;65.71;101861.28;5070196;28;20056;-47
2022/05/04 01:37:32;;;;;;;10.18;3.60;;;;;;;10.59;65.97;101851.91;5054958;28;20446;-50
2022/05/04 01:39:59;;;;;;;14.38;3.58;;;;;;;10.59;65.55;101855.44;5055202;28;20037;-49
2022/05/04 01:42:27;;;;;;;11.75;3.45;;;;;;;10.57;65.75;101854.84;5045874;28;20036;-47
2022/05/04 01:44:55;;;;;;;12.38;4.53;;;;;;;10.43;65.96;101853.47;5055464;28;20049;-48
2022/05/04 01:47:22;;;;;;;12.27;4.32;;;;;;;10.44;66.40;101850.53;5054513;28;20076;-50
2022/05/04 01:49:50;;;;;;;10.45;3.45;;;;;;;10.52;65.64;101848.47;5043523;28;20033;-50
2022/05/04 01:52:18;;;;;;;10.88;3.58;;;;;;;10.62;65.68;101849.50;5055155;28;20415;-51
2022/05/04 01:54:46;;;;;;;9.80;3.63;;;;;;;10.66;64.88;101847.94;5053523;28;20112;-51
2022/05/04 01:57:13;;;;;;;9.48;3.55;;;;;;;10.66;64.48;101853.41;5055599;28;20045;-51
2022/05/04 01:59:41;;;;;;;14.85;3.90;;;;;;;10.58;64.59;101850.22;5056143;28;20052;-53
2022/05/04 02:02:09;;;;;;;12.60;3.65;;;;;;;10.50;64.74;101846.00;5037143;28;20037;-50
2022/05/04 02:04:38;;;;;;;10.10;3.20;;;;;;;10.33;65.05;101848.66;5075051;28;20045;-51
2022/05/04 02:07:08;;;;;;;12.05;3.70;;;;;;;10.26;65.55;101849.81;5073914;28;20403;-51
2022/05/04 02:09:41;;;;;;;14.48;3.63;;;;;;;10.22;66.09;101842.16;5073206;28;20415;-53
2022/05/04 02:12:09;;;;;;;13.32;4.13;;;;;;;10.28;65.68;101850.41;5073267;28;20044;-48
2022/05/04 02:14:36;;;;;;;12.40;3.55;;;;;;;10.32;65.51;101851.59;5042036;28;20055;-51
2022/05/04 02:17:04;;;;;;;14.80;3.83;;;;;;;10.39;65.33;101844.13;5054603;28;20051;-48
2022/05/04 02:19:32;;;;;;;11.73;3.65;;;;;;;10.44;64.71;101847.81;5020378;28;20506;-48
2022/05/04 02:22:00;;;;;;;13.18;3.55;;;;;;;10.40;64.89;101848.53;5021637;28;20040;-51
2022/05/04 02:24:27;;;;;;;13.98;3.80;;;;;;;10.37;64.77;101846.28;5059310;28;20067;-49
2022/05/04 02:26:55;;;;;;;14.30;3.95;;;;;;;10.36;65.14;101841.88;5035148;28;20041;-52
2022/05/04 02:29:23;;;;;;;12.82;4.10;;;;;;;10.38;64.86;101834.31;5035426;28;20041;-49
2022/05/04 02:31:50;;;;;;;14.48;4.38;;;;;;;10.32;64.96;101837.97;5053194;28;20059;-48
2022/05/04 02:34:18;;;;;;;10.38;3.50;;;;;;;10.34;65.36;101841.28;5055689;28;20036;-50
2022/05/04 02:39:33;;;;;;;8.98;3.53;;;;;;;10.31;64.99;101828.16;5023767;28;20063;-51
2022/05/04 02:42:01;;;;;;;17.17;4.10;;;;;;;10.33;65.58;101831.47;5036626;28;20037;-52
2022/05/04 02:44:29;;;;;;;12.05;3.72;;;;;;;10.39;64.82;101841.41;5052434;28;20487;-51
2022/05/04 02:46:56;;;;;;;12.70;3.40;;;;;;;10.40;64.68;101832.19;5066384;28;20044;-51
2022/05/04 02:49:24;;;;;;;12.88;3.85;;;;;;;10.32;65.09;101835.25;5074675;28;20040;-48
2022/05/04 02:51:51;;;;;;;11.75;3.83;;;;;;;10.26;65.37;101831.59;5074302;28;20040;-50
2022/05/04 02:54:19;;;;;;;14.52;4.15;;;;;;;10.28;65.40;101834.06;5074054;28;20037;-50
2022/05/04 02:56:52;;;;;;;13.07;3.50;;;;;;;10.32;65.24;101829.81;5054959;28;20095;-50
2022/05/04 02:59:19;;;;;;;12.13;3.50;;;;;;;10.36;65.01;101831.00;5054866;28;20041;-49
2022/05/04 03:04:33;;;;;;;11.15;3.40;;;;;;;10.22;65.88;101831.25;5053838;28;20040;-49
2022/05/04 03:07:01;;;;;;;14.20;4.38;;;;;;;10.26;65.16;101830.75;5052395;28;20514;-50
2022/05/04 03:09:29;;;;;;;15.70;3.70;;;;;;;10.29;65.03;101827.56;5054801;28;20076;-47
2022/05/04 03:11:56;;;;;;;11.68;3.60;;;;;;;10.22;65.61;101828.53;5053403;28;20041;-47
2022/05/04 03:14:25;;;;;;;12.13;3.83;;;;;;;10.16;65.52;101826.75;5053448;28;20041;-49
2022/05/04 03:16:54;;;;;;;13.38;3.63;;;;;;;10.15;65.66;101819.66;5053358;28;20055;-48
2022/05/04 03:19:22;;;;;;;11.55;3.80;;;;;;;10.20;65.47;101822.50;5035962;28;20042;-48
2022/05/04 03:21:50;;;;;;;10.20;3.47;;;;;;;10.16;65.60;101818.59;5054533;28;20051;-48
2022/05/04 03:24:18;;;;;;;12.95;4.00;;;;;;;10.07;65.66;101811.84;5023577;28;20044;-47
2022/05/04 03:26:46;;;;;;;10.95;3.88;;;;;;;10.00;66.22;101811.97;5052979;28;20086;-47
2022/05/04 03:29:14;;;;;;;16.65;3.92;;;;;;;9.94;66.74;101814.84;5052941;28;20048;-48
2022/05/04 03:31:42;;;;;;;10.02;3.72;;;;;;;10.00;66.42;101808.44;5073293;28;20036;-47
2022/05/04 03:34:09;;;;;;;12.45;3.88;;;;;;;10.08;66.36;101810.81;5072332;28;20064;-51
2022/05/04 03:36:37;;;;;;;15.23;3.70;;;;;;;10.12;65.84;101814.69;5066737;28;20059;-50
2022/05/04 03:39:05;;;;;;;11.57;3.35;;;;;;;10.09;66.24;101807.00;5051807;28;20053;-50
2022/05/04 03:41:34;;;;;;;13.35;4.10;;;;;;;10.16;65.74;101807.69;5034657;28;20389;-48
2022/05/04 03:44:02;;;;;;;13.93;3.95;;;;;;;10.19;65.83;101809.09;5041385;28;20065;-51
2022/05/04 03:46:40;;;;;;;11.13;3.60;;;;;;;10.11;65.89;101807.59;5043691;28;20048;-48
2022/05/04 03:49:08;;;;;;;11.57;4.22;;;;;;;10.15;65.79;101810.63;5074589;28;20053;-49
2022/05/04 03:51:36;;;;;;;11.73;3.88;;;;;;;10.14;65.59;101817.16;5055399;28;20072;-49
2022/05/04 03:54:04;;;;;;;11.50;3.67;;;;;;;10.14;65.99;101815.28;5073050;28;20044;-49
2022/05/04 03:56:32;;;;;;;11.48;3.85;;;;;;;10.16;65.88;101810.41;5032818;28;20053;-50
2022/05/04 03:59:01;;;;;;;12.65;3.75;;;;;;;10.17;65.72;101814.81;5060685;28;20040;-51
2022/05/04 04:01:29;;;;;;;13.95;4.13;;;;;;;10.16;65.66;101815.84;5034891;28;20045;-53
2022/05/04 04:03:57;;;;;;;10.80;3.47;;;;;;;10.12;65.85;101817.41;5034096;28;20549;-50
2022/05/04 04:06:25;;;;;;;12.48;4.28;;;;;;;10.09;66.21;101825.25;5034133;28;20510;-56
2022/05/04 04:08:53;;;;;;;14.27;3.90;;;;;;;10.11;66.03;101823.94;5066049;28;20052;-50
2022/05/04 04:11:21;;;;;;;10.30;3.70;;;;;;;10.14;65.97;101820.72;5017636;28;20041;-51
2022/05/04 04:13:48;;;;;;;12.35;3.80;;;;;;;10.09;65.99;101819.78;5035484;28;20376;-51
2022/05/04 04:16:16;;;;;;;12.13;3.60;;;;;;;10.04;66.23;101815.06;5051767;28;20041;-51
2022/05/04 04:18:44;;;;;;;11.98;3.35;;;;;;;10.03;66.23;101813.41;5053037;28;20091;-53
2022/05/04 04:23:58;;;;;;;;;;;;;;;10.03;66.19;101810.69;5057182;28;20487;-52
2022/05/04 04:26:25;;;;;;;12.95;3.78;;;;;;;9.94;66.34;101815.66;5056239;28;19924;-52
2022/05/04 04:28:53;;;;;;;14.98;4.25;;;;;;;9.87;66.72;101812.25;5076609;28;20036;-50
2022/05/04 04:31:21;;;;;;;10.80;3.58;;;;;;;9.73;67.17;101806.22;5076606;28;20041;-53
2022/05/04 04:33:49;;;;;;;15.07;4.68;;;;;;;9.66;67.37;101813.69;5072479;28;20044;-51
2022/05/04 04:36:17;;;;;;;12.25;3.67;;;;;;;9.65;67.68;101820.19;5044304;28;20049;-52
2022/05/04 04:38:44;;;;;;;17.15;4.75;;;;;;;9.70;67.94;101822.22;5056219;28;20049;-51
2022/05/04 04:41:13;;;;;;;14.45;4.15;;;;;;;9.76;67.77;101821.25;5055834;28;20036;-51
2022/05/04 04:43:40;;;;;;;14.05;4.10;;;;;;;9.84;67.58;101825.50;5056686;28;20040;-57
2022/05/04 04:46:08;;;;;;;13.15;3.97;;;;;;;9.89;67.22;101831.91;5058406;28;20451;-50
2022/05/04 04:48:36;;;;;;;13.30;4.00;;;;;;;9.93;66.76;101829.50;4340935;28;10000459;-51
2022/05/04 04:51:03;;;;;;;11.82;3.90;;;;;;;9.94;66.88;101831.19;5053304;28;20055;-53
2022/05/04 04:53:31;;;;;;;14.55;4.30;;;;;;;9.95;66.70;101830.09;5053148;28;20500;-53
2022/05/04 04:55:59;;;;;;;16.85;4.50;;;;;;;9.89;66.91;101831.09;5052896;28;20578;-49
2022/05/04 04:58:27;;;;;;;10.40;3.97;;;;;;;9.88;66.40;101823.97;5051194;28;20036;-51
2022/05/04 05:00:55;;;;;;;14.43;4.22;;;;;;;9.77;66.91;101831.09;5073043;28;20041;-51
2022/05/04 05:03:22;;;;;;;11.73;4.05;;;;;;;9.68;67.10;101830.59;5072712;28;20511;-54
2022/05/04 05:05:50;;;;;;;12.07;4.25;;;;;;;9.71;67.28;101823.84;5072184;28;20116;-51
2022/05/04 05:08:18;;;;;;;16.05;3.92;;;;;;;9.76;66.85;101819.34;5052945;28;20041;-51
2022/05/04 05:10:45;;;;;;;12.65;4.53;;;;;;;9.67;67.63;101826.25;5068504;28;20064;-53
2022/05/04 05:13:13;;;;;;;11.35;3.95;;;;;;;9.71;67.26;101819.25;5072753;28;20051;-53
2022/05/04 05:18:27;;;;;;;12.35;4.32;;;;;;;9.61;67.17;101835.34;5055559;28;20049;-50
2022/05/04 05:20:55;;;;;;;10.63;3.67;;;;;;;9.58;68.34;101824.94;5052809;28;20044;-51
2022/05/04 05:23:24;;;;;;;15.07;4.45;;;;;;;9.61;67.64;101838.06;5057836;28;20515;-49
2022/05/04 05:25:52;;;;;;;13.80;4.25;;;;;;;9.56;67.85;101827.06;5029925;28;20128;-49
2022/05/04 05:28:20;;;;;;;16.98;4.47;;;;;;;9.53;67.84;101838.44;5027457;28;20037;-49
2022/05/04 05:30:47;;;;;;;16.27;4.63;;;;;;;9.45;68.18;101836.03;5044426;28;20038;-49
2022/05/04 05:33:15;;;;;;;17.23;4.45;;;;;;;9.36;68.72;101828.22;5036042;28;20040;-49
2022/05/04 05:35:43;;;;;;;14.43;4.03;;;;;;;9.30;69.11;101834.59;5050561;28;20041;-49
2022/05/04 05:38:11;;;;;;;20.40;4.75;;;;;;;9.21;69.03;101836.00;5050772;28;20048;-49
2022/05/04 05:40:38;;;;;;;14.27;4.22;;;;;;;9.20;69.26;101828.91;5033919;28;20056;-48
2022/05/04 05:43:06;;;;;;;15.70;4.60;;;;;;;9.23;69.87;101828.44;5049102;28;20480;-50
2022/05/04 05:45:34;;;;;;;13.70;4.63;;;;;;;9.27;69.26;101836.97;5051249;28;20658;-50
2022/05/04 05:48:02;;;;;;;14.07;4.30;;;;;;;9.29;69.08;101838.41;5059204;28;20037;-54
2022/05/04 05:50:29;;;;;;;17.70;4.10;;;;;;;9.30;69.22;101829.16;5037285;28;20578;-50
2022/05/04 05:52:57;;;;;;;13.68;4.50;;;;;;;9.35;69.27;101826.56;5051710;28;20047;-50
2022/05/04 05:55:25;;;;;;;15.30;4.35;;;;;;;9.47;69.29;101833.91;5067997;28;20044;-51
2022/05/04 05:57:52;;;;;;;12.70;4.30;;;;;;;9.40;68.99;101831.31;5042016;28;20056;-50
2022/05/04 06:00:20;;;;;;;15.93;4.10;;;;;;;9.43;68.83;101838.16;5054023;28;20033;-52
2022/05/04 06:02:48;;;;;;;14.57;4.55;;;;;;;9.38;69.48;101842.44;5071538;28;20407;-53
2022/05/04 06:05:15;;;;;;;13.82;4.13;;;;;;;9.44;69.46;101842.56;5070328;28;20127;-54
2022/05/04 06:07:43;;;;;;;14.40;4.43;;;;;;;9.43;69.70;101832.72;5069385;28;20044;-51
2022/05/04 06:10:10;;;;;;;13.07;4.05;;;;;;;9.41;69.44;101838.41;5071105;28;20064;-51
2022/05/04 06:12:38;;;;;;;14.50;4.45;;;;;;;9.47;69.59;101834.72;5053401;28;20391;-53
2022/05/04 06:15:08;;;;;;;12.90;4.22;;;;;;;9.50;68.82;101844.31;5031722;28;20492;-50
2022/05/04 06:17:36;;;;;;;18.15;4.75;;;;;;;9.56;68.59;101846.09;5036371;28;20052;-52
2022/05/04 06:20:06;;;;;;;15.63;4.53;;;;;;;9.51;67.45;101846.00;5071181;28;20086;-53
2022/05/04 06:22:34;;;;;;;11.15;4.15;;;;;;;9.55;67.08;101849.91;5044954;28;20037;-50
2022/05/04 06:25:01;;;;;;;11.68;3.88;;;;;;;9.61;66.42;101854.38;5051201;28;20052;-58
2022/05/04 06:27:30;;;;;;;12.20;3.70;;;;;;;9.62;66.28;101856.06;5034749;28;20040;-49
2022/05/04 06:35:30;;;;;;;14.10;3.90;;;;;;;9.70;65.69;101861.13;5051186;28;20703;-49
2022/05/04 06:37:58;;;;;;;14.45;4.13;;;;;;;9.80;65.49;101855.09;5067089;28;20076;-51
2022/05/04 06:40:26;;;;;;;11.65;3.97;;;;;;;9.78;65.64;101846.34;5071186;28;20050;-50
2022/05/04 06:42:53;;;;;;;11.38;4.30;;;;;;;9.85;65.41;101851.66;5071010;28;20083;-52
2022/05/04 06:45:21;;;;;;;17.50;5.22;;;;;;;9.85;65.37;101851.66;5069663;28;20048;-50
2022/05/04 06:47:49;;;;;;;12.35;4.22;;;;;;;9.89;65.15;101847.41;5057080;28;20153;-55
2022/05/04 06:50:17;;;;;;;14.40;4.35;;;;;;;9.99;64.93;101858.53;5031527;28;20045;-51
2022/05/04 06:52:44;;;;;;;13.00;4.25;;;;;;;10.05;64.23;101856.72;5031095;28;20048;-49
2022/05/04 06:55:12;;;;;;;10.80;3.65;;;;;;;10.05;64.07;101856.72;5030065;28;20049;-50
2022/05/04 06:57:40;;;;;;;12.73;3.88;;;;;;;9.99;64.33;101853.91;5062025;28;20124;-51
2022/05/04 07:00:09;;;;;;;15.57;4.70;;;;;;;9.99;64.71;101861.25;5051579;28;20565;-51
2022/05/04 07:02:37;;;;;;;15.63;4.97;;;;;;;10.04;64.66;101858.63;5050576;28;20048;-51
2022/05/04 07:05:06;;;;;;;18.95;5.93;;;;;;;10.02;64.36;101852.59;5033015;28;20039;-51
2022/05/04 07:07:34;;;;;;;15.82;5.38;;;;;;;10.05;64.68;101852.09;5033567;28;20041;-52
2022/05/04 07:10:02;;;;;;;17.90;5.15;;;;;;;10.12;64.34;101851.97;5051083;28;20053;-50
2022/05/04 07:12:30;;;;;;;17.80;5.07;;;;;;;10.09;63.50;101845.13;5042403;28;20065;-56
2022/05/04 07:14:58;;;;;;;16.45;4.70;;;;;;;10.12;64.15;101850.06;5068467;28;20088;-52
2022/05/04 07:17:26;;;;;;;16.80;4.85;;;;;;;10.05;63.44;101846.66;5057627;28;20492;-51
2022/05/04 07:19:54;;;;;;;11.23;4.95;;;;;;;10.09;63.82;101850.56;5033448;28;20060;-50
2022/05/04 07:22:23;;;;;;;19.77;8.45;;;;;;;10.18;63.51;101846.41;5066460;28;20480;-51
2022/05/04 07:24:51;;;;;;;12.18;4.70;;;;;;;10.24;62.37;101845.44;5045617;28;20136;-51
2022/05/04 07:27:18;;;;;;;13.82;4.75;;;;;;;10.33;62.29;101845.09;5052195;28;20577;-51
2022/05/04 07:29:47;;;;;;;23.13;11.43;;;;;;;10.40;62.74;101843.06;5051641;28;20063;-48
2022/05/04 07:32:15;;;;;;;11.27;5.25;;;;;;;10.45;62.55;101851.34;5032540;28;20139;-48
2022/05/04 07:34:43;;;;;;;11.68;4.80;;;;;;;10.52;62.42;101852.03;5033110;28;20041;-48
2022/05/04 07:37:11;;;;;;;13.85;4.95;;;;;;;10.55;61.81;101845.28;5033423;28;20076;-48
2022/05/04 07:42:25;;;;;;;14.27;4.32;;;;;;;10.49;61.11;101847.06;5050363;28;20045;-47
2022/05/04 07:45:05;;;;;;;17.92;7.85;;;;;;;10.50;62.17;101848.72;5059624;28;20058;-49
2022/05/04 07:47:34;;;;;;;14.38;4.75;;;;;;;10.56;61.85;101853.22;5053769;28;20037;-53
2022/05/04 07:50:04;;;;;;;16.38;5.57;;;;;;;10.53;60.83;101848.22;5019266;28;20075;-50
2022/05/04 07:52:32;;;;;;;12.75;5.03;;;;;;;10.54;61.13;101854.53;5035256;28;20135;-51
2022/05/04 07:55:00;;;;;;;14.02;5.32;;;;;;;10.51;61.75;101855.84;5036479;28;20037;-50
2022/05/04 07:57:27;;;;;;;12.07;5.00;;;;;;;10.57;61.42;101851.31;5073165;28;20037;-51
2022/05/04 08:05:32;;;;;;;16.10;5.38;;;;;;;10.65;61.03;101862.66;5071329;28;20286;-52
2022/05/04 08:08:00;;;;;;;12.88;4.82;;;;;;;10.70;61.07;101859.19;5070936;28;20040;-51
2022/05/04 08:10:28;;;;;;;16.35;4.78;;;;;;;10.78;61.08;101864.25;5072744;28;20053;-50
2022/05/04 08:12:56;;;;;;;13.50;5.35;;;;;;;10.86;60.74;101865.75;5073112;28;20044;-51
2022/05/04 08:15:23;;;;;;;11.77;5.30;;;;;;;10.88;61.13;101859.00;5032623;28;20041;-52
2022/05/04 08:17:51;;;;;;;15.45;5.95;;;;;;;10.92;61.34;101862.06;5034989;28;20045;-49
2022/05/04 08:20:19;;;;;;;15.25;5.47;;;;;;;10.94;60.51;101865.34;5036567;28;20052;-50
2022/05/04 08:22:47;;;;;;;13.07;5.25;;;;;;;10.96;61.14;101856.94;5052642;28;20037;-51
2022/05/04 08:25:17;;;;;;;18.77;6.35;;;;;;;10.88;60.66;101855.44;5053747;28;20048;-52
2022/05/04 08:27:45;;;;;;;16.58;5.60;;;;;;;10.88;60.94;101858.16;5052851;28;20384;-50
2022/05/04 08:30:14;;;;;;;11.73;5.40;;;;;;;10.88;60.95;101855.44;5052835;28;20052;-50
2022/05/04 08:32:45;;;;;;;15.48;6.97;;;;;;;10.98;61.18;101854.78;5053431;28;20045;-51
2022/05/04 08:35:13;;;;;;;12.70;6.40;;;;;;;11.13;60.65;101856.97;5059440;28;20064;-50
2022/05/04 08:37:41;;;;;;;14.25;5.90;;;;;;;11.20;60.71;101857.63;5072251;28;20036;-50
2022/05/04 08:40:09;;;;;;;12.27;5.50;;;;;;;11.26;60.40;101853.94;5072372;28;20109;-51
2022/05/04 08:42:42;;;;;;;15.52;6.18;;;;;;;11.33;60.04;101860.06;5072994;28;20044;-50
2022/05/04 08:45:11;;;;;;;16.60;6.63;;;;;;;11.35;59.85;101860.59;5052965;28;20128;-51
2022/05/04 08:47:40;;;;;;;20.33;8.25;;;;;;;11.38;60.10;101846.50;5015931;28;20038;-51
2022/05/04 08:50:17;;;;;;;20.35;6.90;;;;;;;11.40;59.73;101844.34;5025249;28;20053;-52
2022/05/04 08:52:53;;;;;;;14.18;6.07;;;;;;;11.40;59.56;101844.34;5032646;28;20048;-51
2022/05/04 08:55:25;;;;;;;12.88;5.65;;;;;;;11.38;59.57;101843.75;5036381;28;20036;-50
2022/05/04 08:57:54;;;;;;;13.30;5.97;;;;;;;11.40;59.22;101844.34;5053072;28;20116;-49
2022/05/04 09:00:23;;;;;;;16.83;6.07;;;;;;;11.46;59.37;101840.59;5072277;28;20553;-50
2022/05/04 09:02:50;;;;;;;14.40;6.38;;;;;;;11.51;59.85;101839.84;5072228;28;20040;-52
2022/05/04 09:05:26;;;;;;;17.15;6.78;;;;;;;11.53;59.62;101848.63;5053256;28;20120;-51
2022/05/04 09:07:55;;;;;;;16.00;6.43;;;;;;;11.57;59.29;101846.22;5057805;28;20051;-50
2022/05/04 09:10:31;;;;;;;13.80;7.10;;;;;;;11.57;59.21;101851.66;5075004;28;20059;-50
2022/05/04 09:13:02;;;;;;;15.13;6.68;;;;;;;11.56;58.62;101850.84;5041678;28;20048;-49
2022/05/04 09:15:37;;;;;;;19.65;6.97;;;;;;;11.57;57.41;101846.22;5045475;28;20479;-48
2022/05/04 09:18:16;;;;;;;16.70;6.72;;;;;;;11.59;57.05;101844.88;5056063;28;20037;-49
2022/05/04 09:20:48;;;;;;;15.63;6.65;;;;;;;11.60;56.43;101840.28;5055811;28;20037;-50
2022/05/04 09:23:33;;;;;;;14.57;6.13;;;;;;;11.64;56.87;101841.41;5039280;28;20033;-53
2022/05/04 09:26:03;;;;;;;14.07;6.57;;;;;;;11.65;57.43;101838.44;5057864;28;20041;-50
2022/05/04 09:28:31;;;;;;;17.60;7.50;;;;;;;11.61;57.43;101833.72;5038339;28;20055;-50
2022/05/04 09:31:09;;;;;;;16.42;7.07;;;;;;;11.62;58.24;101827.22;5055549;28;20041;-50
2022/05/04 09:33:38;;;;;;;18.85;6.80;;;;;;;11.72;57.38;101832.81;5055409;28;20514;-48
2022/05/04 09:36:06;;;;;;;18.52;7.15;;;;;;;11.80;57.44;101829.63;5055792;28;20044;-48
2022/05/04 09:46:56;;;;;;;15.82;6.63;;;;;;;12.00;56.53;101823.69;5075622;28;20041;-51
2022/05/04 09:49:31;;;;;;;16.27;7.45;;;;;;;11.97;57.67;101823.34;5075141;28;20498;-51
2022/05/04 09:52:03;;;;;;;15.70;7.20;;;;;;;12.03;57.86;101822.34;5075130;28;20475;-51
2022/05/04 09:54:31;;;;;;;14.73;6.88;;;;;;;12.10;56.77;101831.19;5066762;28;20546;-47
2022/05/04 09:57:01;;;;;;;14.68;6.75;;;;;;;12.11;57.66;101824.63;5065991;28;20041;-51
2022/05/04 09:59:30;;;;;;;12.73;7.57;;;;;;;12.09;57.05;101821.31;5037914;28;20144;-51
2022/05/04 10:02:00;;;;;;;14.05;7.43;;;;;;;12.12;57.77;101821.66;5037635;28;20055;-52
2022/05/04 10:04:28;;;;;;;16.65;7.25;;;;;;;12.16;57.03;101824.69;5056254;28;20075;-53
2022/05/04 10:07:07;;;;;;;18.00;7.38;;;;;;;12.21;56.42;101818.47;5038926;28;20132;-52
2022/05/04 10:09:34;;;;;;;17.98;7.50;;;;;;;12.23;56.34;101819.88;5070704;28;20060;-51
2022/05/04 10:12:04;;;;;;;17.08;7.88;;;;;;;12.25;55.85;101831.38;5037205;28;20048;-51
2022/05/04 10:14:31;;;;;;;14.77;7.40;;;;;;;12.28;56.44;101819.91;5048019;28;20406;-53
2022/05/04 10:17:20;;;;;;;18.92;7.90;;;;;;;12.32;55.89;101823.81;5074816;28;20445;-51
2022/05/04 10:19:56;;;;;;;17.17;7.93;;;;;;;12.31;56.11;101824.91;5057111;28;20052;-47
2022/05/04 10:22:39;;;;;;;18.30;8.48;;;;;;;12.36;55.89;101829.56;5055579;28;20098;-50
2022/05/04 10:25:08;;;;;;;17.13;7.70;;;;;;;12.39;55.81;101817.31;5055560;28;20101;-45
2022/05/04 10:27:43;;;;;;;16.85;7.97;;;;;;;12.42;56.47;101814.06;5056612;28;20051;-48
2022/05/04 10:33:11;;;;;;;19.30;9.30;;;;;;;12.60;57.03;101815.63;5059849;28;20386;-51
2022/05/04 10:35:40;;;;;;;17.60;8.80;;;;;;;12.57;56.15;101816.97;5038368;28;20450;-49
2022/05/04 10:38:30;;;;;;;17.30;8.55;;;;;;;12.60;55.81;101810.16;5055910;28;20129;-47
2022/05/04 10:41:02;;;;;;;16.58;8.15;;;;;;;12.61;55.42;101812.66;5034538;28;20045;-48
2022/05/04 10:43:50;;;;;;;14.52;7.13;;;;;;;12.65;55.04;101813.78;5038135;28;20053;-49
2022/05/04 10:46:20;;;;;;;14.40;7.25;;;;;;;12.68;54.26;101812.44;5040199;28;20048;-50
2022/05/04 10:48:56;;;;;;;18.15;8.80;;;;;;;12.67;53.83;101813.50;5053867;28;20048;-49
2022/05/04 10:51:26;;;;;;;18.25;7.85;;;;;;;12.67;54.15;101806.13;5054769;28;20063;-50
2022/05/04 10:54:05;;;;;;;15.57;8.48;;;;;;;12.66;54.27;101809.97;5074347;28;20065;-52
2022/05/04 10:56:36;;;;;;;20.15;9.48;;;;;;;12.67;54.91;101810.78;5092507;28;20068;-49
2022/05/04 10:59:05;;;;;;;16.10;8.27;;;;;;;12.69;54.28;101803.97;5075621;28;20140;-50
2022/05/04 11:01:34;;;;;;;16.90;8.25;;;;;;;12.73;53.18;101807.84;5043478;28;20036;-51
2022/05/04 11:04:07;;;;;;;12.95;7.53;;;;;;;12.81;53.54;101808.47;5051473;28;20103;-52
2022/05/04 11:06:35;;;;;;;15.85;7.50;;;;;;;12.88;53.33;101795.41;5062706;28;20088;-48
2022/05/04 11:09:07;;;;;;;17.05;7.95;;;;;;;12.88;51.73;101806.34;5053885;28;20132;-49
2022/05/04 11:11:37;;;;;;;16.83;8.15;;;;;;;12.88;50.79;101798.13;5034397;28;20060;-48
2022/05/04 11:14:05;;;;;;;15.30;7.85;;;;;;;12.92;51.79;101805.56;5054079;28;20389;-50
2022/05/04 11:16:33;;;;;;;15.48;8.27;;;;;;;12.93;51.91;101804.47;5036442;28;20040;-49
2022/05/04 11:19:02;;;;;;;16.55;6.95;;;;;;;12.97;51.20;101805.63;5036025;28;20465;-50
2022/05/04 11:21:31;;;;;;;16.73;8.60;;;;;;;13.00;52.46;101804.25;5053570;28;20120;-49
2022/05/04 11:24:01;;;;;;;17.33;9.30;;;;;;;12.98;51.57;101796.31;5054098;28;20499;-50
2022/05/04 11:26:37;;;;;;;19.35;8.40;;;;;;;12.97;50.98;101794.66;5073156;28;20036;-50
2022/05/04 11:29:12;;;;;;;14.75;6.35;;;;;;;13.04;52.02;101771.75;5073247;28;20418;-50
2022/05/04 11:31:47;;;;;;;15.50;8.45;;;;;;;13.09;52.74;101777.25;5053913;28;20044;-50
2022/05/04 11:34:18;;;;;;;14.05;7.57;;;;;;;13.18;53.58;101776.53;5056520;28;20032;-52
2022/05/04 11:36:48;;;;;;;16.77;7.82;;;;;;;13.21;50.12;101776.00;5073508;28;20047;-51
2022/05/04 11:39:18;;;;;;;17.23;7.45;;;;;;;13.22;50.53;101779.53;5072941;28;20052;-50
2022/05/04 11:41:47;;;;;;;16.45;8.40;;;;;;;13.22;48.95;101774.88;5073617;28;20041;-49
2022/05/04 11:44:21;;;;;;;16.00;7.63;;;;;;;13.24;50.34;101774.63;5053707;28;20128;-49
2022/05/04 11:46:49;;;;;;;16.17;8.60;;;;;;;13.30;50.06;101776.38;5071369;28;20124;-51
2022/05/04 11:49:20;;;;;;;16.33;7.43;;;;;;;13.34;50.16;101771.16;5039592;28;20044;-50
2022/05/04 11:51:48;;;;;;;14.75;7.57;;;;;;;13.38;50.31;101766.84;5050672;28;20492;-50
2022/05/04 11:54:16;;;;;;;14.30;8.13;;;;;;;13.42;50.12;101767.94;5053084;28;20044;-50
2022/05/04 11:56:44;;;;;;;14.35;8.52;;;;;;;13.44;50.55;101771.22;5035481;28;20403;-46
2022/05/04 11:59:12;;;;;;;17.58;9.15;;;;;;;13.58;50.10;101772.41;5035504;28;20045;-48
2022/05/04 12:01:40;;;;;;;17.33;8.98;;;;;;;13.54;49.88;101765.84;5052308;28;20325;-51
2022/05/04 12:04:10;;;;;;;14.82;8.25;;;;;;;13.55;49.80;101767.47;5041360;28;20045;-49
2022/05/04 12:06:38;;;;;;;17.73;8.65;;;;;;;13.54;50.03;101757.63;5035232;28;20127;-50